Time;durP1;ratioP1;P1;durP2;ratioP2;P2;SDS_P1;SDS_P2;PMS_P1;PMS_P2;Temp;Humidity;BMP_temperature;BMP_pressure;BME280_temperature;BME280_humidity;BME280_pressure;Samples;Min_cycle;Max_cycle;Signal;HPM_P1;HPM_P2
2022/03/18 00:00:39;;;;;;;9.57;4.00;;;16.40;62.10;;;;;;4047489;29;20104;-66
2022/03/18 00:03:01;;;;;;;8.05;4.13;;;16.40;62.20;;;;;;4034027;29;20415;-65
2022/03/18 00:05:25;;;;;;;11.82;4.05;;;16.40;62.20;;;;;;4048437;29;20056;-65
2022/03/18 00:07:48;;;;;;;12.68;4.03;;;16.40;62.30;;;;;;4033744;29;20053;-66
2022/03/18 00:10:12;;;;;;;10.27;4.25;;;16.40;62.30;;;;;;4046856;29;20156;-66
2022/03/18 00:12:37;;;;;;;11.20;4.13;;;16.40;62.30;;;;;;4047406;29;20411;-65
2022/03/18 00:15:00;;;;;;;10.48;4.72;;;16.30;62.30;;;;;;4034476;29;20152;-65
2022/03/18 00:17:24;;;;;;;10.38;4.35;;;16.30;62.30;;;;;;4048402;29;20625;-66
2022/03/18 00:19:46;;;;;;;10.75;3.90;;;16.30;62.30;;;;;;4046256;29;20144;-65
2022/03/18 00:22:11;;;;;;;11.52;4.10;;;16.30;62.50;;;;;;4048095;29;20075;-67
2022/03/18 00:24:35;;;;;;;12.82;4.13;;;16.30;62.50;;;;;;4048588;29;20054;-66
2022/03/18 00:26:59;;;;;;;12.32;4.45;;;16.20;62.60;;;;;;4034053;29;20045;-66
2022/03/18 00:29:22;;;;;;;12.13;4.28;;;16.20;62.60;;;;;;4044961;29;20049;-69
2022/03/18 00:31:45;;;;;;;12.05;4.47;;;16.20;62.60;;;;;;4025815;29;20068;-67
2022/03/18 00:34:10;;;;;;;12.60;4.25;;;16.20;62.50;;;;;;4032736;29;20045;-67
2022/03/18 00:36:32;;;;;;;13.88;4.60;;;16.20;62.60;;;;;;4034565;29;20189;-66
2022/03/18 00:38:55;;;;;;;11.25;4.20;;;16.20;62.80;;;;;;4030928;29;21997;-66
2022/03/18 00:41:18;;;;;;;11.90;4.03;;;16.20;62.60;;;;;;4029599;29;20053;-67
2022/03/18 00:43:42;;;;;;;7.68;3.90;;;16.20;62.80;;;;;;4047786;29;20064;-67
2022/03/18 00:46:06;;;;;;;12.30;4.53;;;16.20;62.90;;;;;;4032071;29;20053;-67
2022/03/18 00:54:01;;;;;;;8.90;4.50;;;16.20;63.10;;;;;;4015100;29;20056;-67
2022/03/18 00:56:23;;;;;;;8.73;4.18;;;16.10;63.10;;;;;;4041747;29;20068;-66
2022/03/18 00:58:47;;;;;;;14.60;4.70;;;16.10;63.00;;;;;;4044250;29;20049;-66
2022/03/18 01:10:14;;;;;;;11.13;4.60;;;16.10;63.60;;;;;;4443551;23;20048;-67
2022/03/18 01:12:55;;;;;;;10.25;4.93;;;16.00;64.70;;;;;;4741227;23;20559;31
2022/03/18 01:15:13;;;;;;;14.85;4.95;;;16.00;63.60;;;;;;3983765;29;20058;-68
2022/03/18 01:17:36;;;;;;;13.13;5.28;;;16.00;63.50;;;;;;3987791;29;20078;-68
2022/03/18 01:19:58;;;;;;;16.52;5.40;;;16.00;63.50;;;;;;3987709;29;20047;-68
2022/03/18 01:22:20;;;;;;;10.35;4.63;;;16.00;63.40;;;;;;4001858;29;20140;-68
2022/03/18 01:24:42;;;;;;;11.38;4.75;;;16.00;63.30;;;;;;3987107;29;20050;-68
2022/03/18 01:27:05;;;;;;;12.05;5.03;;;16.00;63.50;;;;;;3987050;29;20149;-67
2022/03/18 01:29:27;;;;;;;13.93;5.70;;;16.00;63.40;;;;;;4001626;29;20121;-69
2022/03/18 01:31:51;;;;;;;13.45;5.10;;;16.00;63.40;;;;;;3974913;29;20055;-68
2022/03/18 01:34:13;;;;;;;12.88;4.78;;;16.00;64.30;;;;;;4002117;29;20140;-67
2022/03/18 01:36:36;;;;;;;16.58;5.18;;;16.00;63.50;;;;;;4001233;29;20045;-67
2022/03/18 01:38:59;;;;;;;14.13;5.38;;;15.90;63.40;;;;;;4001582;29;20072;-67
2022/03/18 01:41:21;;;;;;;7.75;4.63;;;15.90;63.40;;;;;;4000404;29;20102;-67
2022/03/18 01:43:46;;;;;;;16.13;5.55;;;15.90;63.50;;;;;;3986295;29;20050;-67
2022/03/18 01:46:09;;;;;;;11.07;4.80;;;15.90;63.50;;;;;;3999898;29;20568;-68
2022/03/18 01:48:32;;;;;;;14.75;4.88;;;15.90;63.50;;;;;;3987555;29;20439;-67
2022/03/18 01:50:55;;;;;;;12.43;5.28;;;15.90;63.50;;;;;;3986769;29;20047;-67
2022/03/18 01:53:17;;;;;;;12.85;5.10;;;15.90;63.50;;;;;;4001098;29;20103;-67
2022/03/18 01:55:39;;;;;;;14.18;5.45;;;15.90;63.40;;;;;;3999766;29;20054;-66
2022/03/18 01:58:03;;;;;;;10.73;5.05;;;15.90;63.40;;;;;;4001396;29;20427;-67
2022/03/18 02:00:26;;;;;;;10.50;4.93;;;15.90;63.50;;;;;;4001350;29;20430;-66
2022/03/18 02:02:49;;;;;;;11.27;5.30;;;15.90;63.60;;;;;;4000838;29;20129;-67
2022/03/18 02:05:13;;;;;;;13.88;5.50;;;15.90;63.60;;;;;;4000939;29;20058;-67
2022/03/18 02:07:37;;;;;;;9.23;4.60;;;15.90;63.40;;;;;;3987371;29;20471;-67
2022/03/18 02:09:59;;;;;;;11.95;5.15;;;15.90;64.10;;;;;;4001197;29;20083;-66
2022/03/18 02:12:22;;;;;;;15.77;5.38;;;15.90;64.20;;;;;;4001270;29;20106;-65
2022/03/18 02:14:46;;;;;;;12.52;5.35;;;15.90;64.20;;;;;;3997192;29;20060;-67
2022/03/18 02:17:11;;;;;;;11.68;5.43;;;16.00;64.00;;;;;;3985699;29;20054;-67
2022/03/18 02:19:33;;;;;;;11.23;5.13;;;16.00;63.80;;;;;;3974085;29;20054;-67
2022/03/18 02:21:58;;;;;;;9.43;4.90;;;16.10;63.80;;;;;;3978804;29;20069;-67
2022/03/18 02:24:22;;;;;;;10.73;4.80;;;16.10;63.60;;;;;;3989218;29;20057;-67
2022/03/18 02:26:47;;;;;;;13.77;5.63;;;16.10;63.50;;;;;;3999936;29;20106;-60
2022/03/18 02:29:10;;;;;;;11.40;5.80;;;16.10;64.20;;;;;;4001583;29;20482;-60
2022/03/18 02:31:32;;;;;;;16.08;5.55;;;16.10;63.30;;;;;;3981199;29;20069;-61
2022/03/18 02:33:54;;;;;;;11.55;5.10;;;16.10;63.10;;;;;;4001045;29;20126;-61
2022/03/18 02:36:16;;;;;;;9.57;5.53;;;16.10;62.80;;;;;;3987729;29;20057;-60
2022/03/18 02:38:38;;;;;;;9.38;5.30;;;16.10;62.70;;;;;;4001340;29;20050;-61
2022/03/18 02:41:02;;;;;;;12.38;5.38;;;16.10;62.80;;;;;;3989291;29;20137;-60
2022/03/18 02:43:24;;;;;;;10.02;4.90;;;16.00;62.90;;;;;;3986312;29;20410;-61
2022/03/18 02:45:46;;;;;;;11.73;5.28;;;16.00;63.10;;;;;;3986149;29;20050;-61
2022/03/18 02:48:08;;;;;;;9.00;5.20;;;16.00;63.20;;;;;;3986032;29;20058;-60
2022/03/18 02:50:30;;;;;;;13.00;5.22;;;15.90;63.10;;;;;;3985336;29;20501;-60
2022/03/18 02:52:52;;;;;;;12.57;5.05;;;15.90;63.10;;;;;;3988263;29;20119;-60
2022/03/18 02:55:14;;;;;;;12.73;5.68;;;15.90;63.10;;;;;;3985715;29;20082;-60
2022/03/18 02:57:38;;;;;;;11.25;5.03;;;15.90;63.50;;;;;;3985505;29;20053;-61
2022/03/18 03:00:00;;;;;;;13.65;5.35;;;15.90;63.60;;;;;;3985673;29;20054;-62
2022/03/18 03:02:22;;;;;;;11.45;4.75;;;15.80;64.40;;;;;;3998161;29;20061;-60
2022/03/18 03:10:01;;;;;;;11.65;4.93;;;15.80;63.90;;;;;;3988324;29;20103;-61
2022/03/18 03:12:23;;;;;;;10.07;4.75;;;15.80;64.50;;;;;;3998811;29;20061;-61
2022/03/18 03:14:47;;;;;;;10.75;5.00;;;15.90;64.90;;;;;;3977823;29;20481;-60
2022/03/18 03:17:09;;;;;;;8.27;4.65;;;16.00;64.70;;;;;;3985933;29;20069;-60
2022/03/18 03:19:31;;;;;;;10.77;5.50;;;16.00;64.10;;;;;;3985615;29;20061;-61
2022/03/18 03:21:53;;;;;;;10.27;5.18;;;16.10;64.00;;;;;;3997561;29;20069;-61
2022/03/18 03:24:15;;;;;;;11.75;5.72;;;16.20;63.70;;;;;;4000140;29;20046;-60
2022/03/18 03:26:38;;;;;;;13.25;4.97;;;16.20;63.60;;;;;;3999737;29;20114;-60
2022/03/18 03:29:00;;;;;;;9.23;4.53;;;16.30;63.50;;;;;;3995907;29;20073;-60
2022/03/18 03:31:24;;;;;;;12.50;5.13;;;16.30;63.40;;;;;;3992638;29;20380;-61
2022/03/18 03:33:46;;;;;;;8.23;4.63;;;16.30;63.20;;;;;;3992127;29;20446;-60
2022/03/18 03:36:08;;;;;;;11.60;4.63;;;16.30;63.00;;;;;;3984951;29;20057;-60
2022/03/18 03:38:31;;;;;;;8.85;5.20;;;16.20;63.10;;;;;;3985316;29;20647;-61
2022/03/18 03:40:53;;;;;;;8.45;4.88;;;16.30;63.50;;;;;;3982314;29;20054;-60
2022/03/18 03:43:15;;;;;;;9.98;4.85;;;16.30;63.40;;;;;;4000488;29;20739;-61
2022/03/18 03:45:38;;;;;;;7.28;4.63;;;16.30;63.30;;;;;;3986886;29;20110;-59
2022/03/18 03:48:01;;;;;;;7.97;5.07;;;16.40;63.20;;;;;;3985526;29;20221;-60
2022/03/18 03:50:23;;;;;;;7.63;4.07;;;16.40;63.00;;;;;;3986871;29;20509;-60
2022/03/18 03:52:45;;;;;;;9.75;4.93;;;16.40;63.10;;;;;;4000927;29;20058;-60
2022/03/18 03:55:09;;;;;;;10.75;4.40;;;16.40;63.10;;;;;;3986930;29;20528;-59
2022/03/18 03:57:32;;;;;;;8.40;4.82;;;16.40;63.10;;;;;;4000578;29;20503;-59
2022/03/18 03:59:54;;;;;;;6.82;4.32;;;16.40;62.90;;;;;;3983885;29;20054;-60
2022/03/18 04:02:16;;;;;;;8.75;5.10;;;16.40;62.80;;;;;;4000516;29;20515;-60
2022/03/18 04:04:40;;;;;;;10.57;4.55;;;16.40;62.80;;;;;;4000226;29;20058;-60
2022/03/18 04:07:02;;;;;;;12.90;4.82;;;16.40;62.70;;;;;;4002251;29;20062;-64
2022/03/18 04:09:24;;;;;;;10.65;4.88;;;16.40;62.80;;;;;;3996018;29;20083;-61
2022/03/18 04:11:46;;;;;;;10.00;5.07;;;16.40;62.70;;;;;;3991389;29;20058;-60
2022/03/18 04:14:09;;;;;;;7.40;4.50;;;16.30;62.60;;;;;;3987252;29;20069;-60
2022/03/18 04:16:34;;;;;;;12.63;4.78;;;16.30;62.60;;;;;;3988464;29;20066;-60
2022/03/18 04:18:56;;;;;;;12.73;5.07;;;16.30;62.70;;;;;;3987905;29;20173;-60
2022/03/18 04:21:20;;;;;;;14.15;5.88;;;16.20;62.60;;;;;;3987613;29;20103;-60
2022/03/18 04:23:42;;;;;;;8.25;4.57;;;16.20;62.60;;;;;;3987685;29;20081;-60
2022/03/18 04:26:04;;;;;;;8.85;4.68;;;16.20;62.60;;;;;;3987922;29;20087;-59
2022/03/18 04:28:26;;;;;;;11.73;4.90;;;16.20;63.20;;;;;;3988049;29;20639;-59
2022/03/18 04:30:48;;;;;;;10.07;5.65;;;16.20;63.70;;;;;;3984970;29;20481;-60
2022/03/18 04:33:10;;;;;;;9.95;5.07;;;16.30;63.50;;;;;;4002634;29;20058;-59
2022/03/18 04:35:32;;;;;;;10.18;4.70;;;16.40;63.20;;;;;;4002722;29;20054;-60
2022/03/18 04:37:56;;;;;;;7.45;4.75;;;16.50;62.80;;;;;;3995513;29;20781;-60
2022/03/18 04:40:18;;;;;;;13.35;5.35;;;16.50;62.50;;;;;;3989383;29;20110;-60
2022/03/18 04:42:41;;;;;;;8.48;5.20;;;16.60;62.30;;;;;;4002687;29;20054;-60
2022/03/18 04:45:03;;;;;;;11.05;5.30;;;16.60;62.20;;;;;;3993303;29;20081;-60
2022/03/18 04:47:25;;;;;;;10.25;5.28;;;16.50;63.00;;;;;;3971898;29;20111;-59
2022/03/18 04:49:48;;;;;;;10.75;5.05;;;16.60;62.30;;;;;;3972738;29;20088;-60
2022/03/18 04:52:10;;;;;;;8.90;4.53;;;16.50;63.10;;;;;;3972558;29;20224;-59
2022/03/18 04:54:34;;;;;;;5.32;4.38;;;16.50;62.10;;;;;;3972487;29;20456;-60
2022/03/18 04:57:19;;;;;;;10.65;5.10;;;16.50;62.10;;;;;;3984734;29;20064;-59
2022/03/18 04:59:41;;;;;;;11.03;4.90;;;16.50;62.30;;;;;;3987371;29;20572;-59
2022/03/18 05:02:10;;;;;;;11.60;5.07;;;16.40;62.50;;;;;;3958876;29;20687;-60
2022/03/18 05:04:32;;;;;;;8.60;5.07;;;16.40;62.50;;;;;;3972455;29;20527;-59
2022/03/18 05:06:55;;;;;;;12.65;5.35;;;16.30;62.50;;;;;;3983572;29;20511;-59
2022/03/18 05:09:17;;;;;;;9.40;5.03;;;16.30;62.60;;;;;;3987590;29;20473;-60
2022/03/18 05:11:41;;;;;;;6.80;4.68;;;16.30;63.10;;;;;;3987595;29;20075;-60
2022/03/18 05:14:02;;;;;;;8.70;4.72;;;16.40;63.10;;;;;;3986973;29;20202;-59
2022/03/18 05:16:25;;;;;;;9.45;5.00;;;16.40;63.00;;;;;;3986871;29;20553;-60
2022/03/18 05:18:47;;;;;;;8.68;5.50;;;16.40;62.80;;;;;;3986595;29;20057;-60
2022/03/18 05:21:10;;;;;;;7.50;5.72;;;16.40;62.50;;;;;;3996543;29;20093;-61
2022/03/18 05:23:32;;;;;;;8.05;4.72;;;16.40;62.50;;;;;;4002243;29;20084;-60
2022/03/18 05:25:55;;;;;;;8.02;5.35;;;16.40;62.40;;;;;;3995751;29;20059;-61
2022/03/18 05:28:18;;;;;;;8.40;4.80;;;16.40;63.30;;;;;;3986851;29;20489;-60
2022/03/18 05:30:40;;;;;;;12.23;5.50;;;16.40;63.30;;;;;;3987392;29;20065;-61
2022/03/18 05:33:02;;;;;;;8.00;4.55;;;16.40;62.50;;;;;;3986652;29;20114;-60
2022/03/18 05:35:24;;;;;;;5.93;4.90;;;16.40;62.50;;;;;;3986546;29;20501;-61
2022/03/18 05:37:47;;;;;;;9.32;5.20;;;16.40;62.50;;;;;;3986864;29;20141;-61
2022/03/18 05:40:12;;;;;;;6.68;4.82;;;16.40;62.60;;;;;;3991026;29;20061;-61
2022/03/18 05:42:34;;;;;;;13.55;6.10;;;16.40;62.70;;;;;;4002051;29;20132;-61
2022/03/18 05:45:00;;;;;;;10.18;4.88;;;16.40;62.80;;;;;;3990842;29;20747;-61
2022/03/18 05:47:22;;;;;;;11.73;5.35;;;16.40;62.80;;;;;;3986341;29;20061;-60
2022/03/18 05:49:44;;;;;;;10.95;5.57;;;16.40;62.70;;;;;;4001468;29;20573;-58
2022/03/18 05:52:07;;;;;;;11.02;5.32;;;16.40;63.60;;;;;;3988331;29;20050;-61
2022/03/18 05:54:29;;;;;;;7.97;5.07;;;16.40;62.70;;;;;;3994250;29;20050;-61
2022/03/18 05:56:53;;;;;;;8.70;5.07;;;16.40;62.50;;;;;;3971772;29;20053;-61
2022/03/18 05:59:17;;;;;;;8.88;6.20;;;16.40;62.50;;;;;;3994162;29;20415;-60
2022/03/18 06:01:41;;;;;;;9.90;5.72;;;16.50;62.50;;;;;;4001906;29;20064;-58
2022/03/18 06:04:04;;;;;;;10.00;5.20;;;16.40;62.70;;;;;;3985689;29;20052;-60
2022/03/18 06:06:27;;;;;;;10.15;6.10;;;16.40;62.60;;;;;;3986216;29;20409;-60
2022/03/18 06:14:09;;;;;;;10.48;5.32;;;16.50;62.40;;;;;;3958725;29;20188;-61
2022/03/18 06:16:31;;;;;;;9.07;5.78;;;16.50;62.30;;;;;;3971741;29;20061;-61
2022/03/18 06:18:55;;;;;;;14.48;6.20;;;16.50;62.30;;;;;;3958047;29;20062;-61
2022/03/18 06:21:17;;;;;;;11.07;6.10;;;16.50;62.20;;;;;;3958270;29;20065;-60
2022/03/18 06:23:40;;;;;;;18.33;7.97;;;16.50;62.30;;;;;;3982018;29;20078;-61
2022/03/18 06:26:02;;;;;;;13.38;5.82;;;16.50;62.40;;;;;;3986324;29;20065;-60
2022/03/18 06:28:24;;;;;;;11.82;6.38;;;16.50;62.50;;;;;;3986358;29;20080;-60
2022/03/18 06:30:46;;;;;;;11.32;6.50;;;16.50;62.40;;;;;;3984943;29;20102;-60
2022/03/18 06:33:09;;;;;;;12.15;5.82;;;16.50;62.20;;;;;;3993969;29;20065;-60
2022/03/18 06:35:33;;;;;;;11.63;6.00;;;16.60;62.00;;;;;;3970937;29;20071;-61
2022/03/18 06:37:55;;;;;;;11.85;6.28;;;16.60;61.90;;;;;;3971348;29;20073;-61
2022/03/18 06:40:18;;;;;;;11.73;5.85;;;16.60;61.90;;;;;;3971235;29;20576;-60
2022/03/18 06:42:40;;;;;;;10.52;5.82;;;16.60;61.90;;;;;;3980058;29;20049;-62
2022/03/18 06:45:02;;;;;;;12.18;6.18;;;16.60;62.00;;;;;;3986260;29;20049;-61
2022/03/18 06:47:24;;;;;;;12.20;6.10;;;16.70;62.20;;;;;;3986931;29;20058;-62
2022/03/18 06:49:47;;;;;;;11.15;6.13;;;16.70;62.10;;;;;;3974453;29;20507;-62
2022/03/18 06:52:10;;;;;;;13.98;5.72;;;16.70;62.20;;;;;;3985911;29;20059;-61
2022/03/18 06:54:32;;;;;;;15.27;6.47;;;16.70;62.20;;;;;;3971017;29;20045;-62
2022/03/18 06:56:54;;;;;;;10.40;5.15;;;16.70;62.20;;;;;;3957784;29;20604;-62
2022/03/18 06:59:16;;;;;;;14.57;5.68;;;16.70;62.10;;;;;;3961439;29;20051;-63
2022/03/18 07:01:38;;;;;;;15.18;6.47;;;16.60;62.20;;;;;;3985067;29;20065;-62
2022/03/18 07:04:01;;;;;;;9.95;6.22;;;16.60;62.10;;;;;;3985052;29;20519;-62
2022/03/18 07:06:23;;;;;;;13.18;5.72;;;16.60;61.90;;;;;;3969881;29;20063;-60
2022/03/18 07:08:47;;;;;;;15.05;6.28;;;16.60;61.70;;;;;;3983817;29;20066;-62
2022/03/18 07:11:13;;;;;;;13.68;6.13;;;16.60;61.90;;;;;;3986607;29;20070;-62
2022/03/18 07:13:36;;;;;;;11.55;5.47;;;16.60;61.60;;;;;;3986071;29;20050;-62
2022/03/18 07:18:37;;;;;;;13.73;6.32;;;16.60;61.80;;;;;;3985955;29;20050;-62
2022/03/18 07:20:59;;;;;;;8.95;6.50;;;16.60;61.80;;;;;;3986514;29;20065;-62
2022/03/18 07:23:22;;;;;;;10.60;6.72;;;16.60;61.80;;;;;;3986493;29;20493;-62
2022/03/18 07:25:47;;;;;;;13.48;6.38;;;16.60;61.80;;;;;;3985599;29;20521;-62
2022/03/18 07:28:15;;;;;;;13.05;5.97;;;16.60;61.80;;;;;;3986125;29;20137;-59
2022/03/18 07:30:39;;;;;;;13.10;6.85;;;16.60;61.60;;;;;;3985807;29;20057;-60
2022/03/18 07:33:01;;;;;;;11.63;6.35;;;16.60;61.50;;;;;;3985451;29;20130;-61
2022/03/18 07:35:24;;;;;;;12.02;6.35;;;16.60;61.50;;;;;;3985644;29;20063;-60
2022/03/18 07:37:47;;;;;;;10.85;6.72;;;16.60;61.10;;;;;;3986216;29;20838;-60
2022/03/18 07:40:11;;;;;;;10.32;6.90;;;16.60;60.70;;;;;;3986156;29;20165;-60
2022/03/18 07:42:42;;;;;;;11.55;6.57;;;16.60;60.60;;;;;;3988931;29;20181;-61
2022/03/18 07:45:05;;;;;;;9.88;6.60;;;16.50;60.80;;;;;;3988245;29;20132;-61
2022/03/18 07:47:27;;;;;;;11.50;6.88;;;16.50;61.10;;;;;;3988517;29;20159;-60
2022/03/18 07:49:49;;;;;;;14.82;6.80;;;16.50;61.90;;;;;;3974909;29;20117;-61
2022/03/18 07:52:11;;;;;;;12.75;6.38;;;16.60;62.00;;;;;;3988170;29;20066;-61
2022/03/18 07:54:34;;;;;;;11.02;6.65;;;16.60;61.80;;;;;;3991838;29;20050;-61
2022/03/18 07:56:56;;;;;;;13.93;7.43;;;16.70;61.50;;;;;;3986619;29;20123;-61
2022/03/18 07:59:19;;;;;;;9.73;6.78;;;16.80;61.50;;;;;;3987428;29;20093;-61
2022/03/18 08:01:41;;;;;;;9.52;7.07;;;16.80;61.30;;;;;;3987061;29;20081;-61
2022/03/18 08:04:03;;;;;;;14.20;7.78;;;16.80;61.10;;;;;;3978783;29;20082;-61
2022/03/18 08:06:25;;;;;;;12.18;6.97;;;16.80;60.90;;;;;;3977149;29;20250;-61
2022/03/18 08:08:48;;;;;;;13.90;7.80;;;16.90;61.80;;;;;;3988186;29;20050;-61
2022/03/18 08:11:10;;;;;;;12.18;8.32;;;16.80;60.80;;;;;;3988739;29;20058;-61
2022/03/18 08:13:32;;;;;;;20.25;8.32;;;16.90;60.90;;;;;;3987029;29;20058;-61
2022/03/18 08:15:55;;;;;;;11.77;8.02;;;16.80;60.60;;;;;;3979935;29;20062;-61
2022/03/18 08:18:17;;;;;;;16.13;8.13;;;16.80;60.60;;;;;;3986155;29;20072;-61
2022/03/18 08:20:40;;;;;;;14.65;7.43;;;16.80;60.80;;;;;;3988628;29;20114;-61
2022/03/18 08:23:03;;;;;;;19.45;8.60;;;16.80;60.90;;;;;;3988333;29;20061;-61
2022/03/18 08:25:25;;;;;;;21.67;14.38;;;16.80;60.80;;;;;;3986869;29;20553;-61
2022/03/18 08:27:49;;;;;;;24.27;13.93;;;16.80;59.60;;;;;;3972917;29;20046;-60
2022/03/18 08:30:12;;;;;;;17.58;8.75;;;16.70;59.80;;;;;;3985597;29;20110;-60
2022/03/18 08:32:36;;;;;;;17.27;8.35;;;16.70;59.60;;;;;;3987802;29;20050;-61
2022/03/18 08:34:59;;;;;;;17.40;8.27;;;16.60;59.90;;;;;;3983825;29;20050;-61
2022/03/18 08:37:56;;;;;;;14.70;8.48;;;16.60;61.40;;;;;;3987817;29;20061;-60
2022/03/18 08:40:04;;;;;;;17.02;8.68;;;16.60;60.90;;;;;;3986973;29;20121;-58
2022/03/18 08:42:27;;;;;;;15.90;8.38;;;16.50;61.50;;;;;;3988025;29;20065;-60
2022/03/18 08:44:49;;;;;;;21.92;8.98;;;16.50;62.40;;;;;;3987406;29;20046;-60
2022/03/18 08:47:11;;;;;;;24.25;8.25;;;16.50;62.30;;;;;;3971896;29;20062;-60
2022/03/18 08:49:35;;;;;;;18.92;9.55;;;16.50;61.40;;;;;;3972730;29;20055;-61
2022/03/18 08:51:57;;;;;;;17.63;8.23;;;16.50;61.20;;;;;;3987502;29;20050;-60
2022/03/18 08:54:21;;;;;;;22.35;8.27;;;16.40;61.30;;;;;;3986379;29;20054;-60
2022/03/18 08:56:43;;;;;;;19.48;7.40;;;16.40;61.30;;;;;;3986978;29;20056;-60
2022/03/18 08:59:06;;;;;;;15.90;8.00;;;16.40;61.30;;;;;;3963930;29;20484;-60
2022/03/18 09:01:28;;;;;;;15.48;8.02;;;16.30;61.30;;;;;;3987471;29;20485;-62
2022/03/18 09:03:51;;;;;;;15.55;7.70;;;16.30;61.70;;;;;;3987093;29;20046;-61
2022/03/18 09:06:14;;;;;;;15.02;7.30;;;16.20;62.00;;;;;;3987343;29;20058;-61
2022/03/18 09:08:37;;;;;;;17.50;7.90;;;16.20;63.40;;;;;;3986874;29;20050;-62
2022/03/18 09:10:59;;;;;;;14.60;7.78;;;16.20;62.10;;;;;;3986772;29;20062;-61
2022/03/18 09:13:21;;;;;;;19.08;8.07;;;16.20;62.30;;;;;;3985750;29;20058;-61
2022/03/18 09:15:43;;;;;;;15.50;7.75;;;16.10;62.90;;;;;;3986465;29;20065;-62
2022/03/18 09:18:06;;;;;;;15.30;8.02;;;16.20;63.10;;;;;;3987031;29;20103;-61
2022/03/18 09:20:28;;;;;;;20.45;9.40;;;16.20;63.70;;;;;;3987143;29;20107;-62
2022/03/18 09:22:52;;;;;;;17.50;7.70;;;16.20;62.80;;;;;;3958917;29;20066;-62
2022/03/18 09:25:15;;;;;;;16.73;8.00;;;16.20;63.00;;;;;;3986847;29;20073;-61
2022/03/18 09:27:38;;;;;;;18.05;8.77;;;16.20;63.30;;;;;;3987245;29;20570;-62
2022/03/18 09:30:03;;;;;;;16.52;8.02;;;16.20;63.70;;;;;;3986911;29;20058;-62
2022/03/18 09:32:26;;;;;;;17.63;7.25;;;16.30;63.80;;;;;;3972299;29;20058;-62
2022/03/18 09:34:48;;;;;;;17.40;7.57;;;16.40;63.30;;;;;;3984551;29;20142;-62
2022/03/18 09:37:10;;;;;;;21.88;7.97;;;16.50;63.00;;;;;;3986223;29;20559;-62
2022/03/18 09:39:33;;;;;;;18.40;7.63;;;16.60;62.80;;;;;;3986716;29;20054;-61
2022/03/18 09:41:57;;;;;;;16.65;6.82;;;16.70;62.70;;;;;;3986823;29;20071;-62
2022/03/18 09:44:19;;;;;;;19.65;8.13;;;16.70;62.40;;;;;;3986438;29;20488;-61
2022/03/18 09:46:42;;;;;;;16.25;6.90;;;16.80;62.30;;;;;;3987103;29;20058;-62
2022/03/18 09:49:11;;;;;;;15.60;7.43;;;16.80;62.10;;;;;;3971323;29;20521;-61
2022/03/18 09:51:33;;;;;;;15.95;7.88;;;16.80;61.80;;;;;;3971682;29;20066;-61
2022/03/18 09:54:20;;;;;;;19.75;7.05;;;16.90;61.60;;;;;;3982247;29;20187;-62
2022/03/18 09:56:45;;;;;;;18.95;7.47;;;16.90;61.60;;;;;;3984646;29;20441;-62
2022/03/18 09:59:07;;;;;;;21.60;7.78;;;16.90;61.70;;;;;;3986726;29;20050;-62
2022/03/18 10:01:29;;;;;;;19.40;7.18;;;16.90;61.60;;;;;;3986995;29;20382;-62
2022/03/18 10:03:52;;;;;;;20.77;8.15;;;16.90;61.60;;;;;;3985646;29;20058;-61
2022/03/18 10:06:14;;;;;;;19.13;7.78;;;16.90;61.10;;;;;;3986574;29;20058;-62
2022/03/18 10:08:51;;;;;;;18.92;7.60;;;16.90;61.20;;;;;;3986746;29;20465;-60
2022/03/18 10:11:15;;;;;;;19.70;8.07;;;16.90;61.60;;;;;;3971973;29;20062;-60
2022/03/18 10:13:52;;;;;;;22.30;9.20;;;16.90;62.10;;;;;;3984911;29;20046;-61
2022/03/18 10:16:22;;;;;;;16.83;7.55;;;16.90;62.20;;;;;;3971049;29;20055;-61
2022/03/18 10:18:49;;;;;;;15.77;7.82;;;17.00;61.70;;;;;;3983838;29;20054;-61
2022/03/18 10:21:12;;;;;;;24.63;8.80;;;17.10;61.80;;;;;;3971421;29;20399;-60
2022/03/18 10:23:34;;;;;;;21.88;8.43;;;17.10;61.80;;;;;;3984595;29;20065;-60
2022/03/18 10:25:58;;;;;;;15.23;7.32;;;17.20;61.30;;;;;;3985923;29;20062;-62
2022/03/18 10:28:36;;;;;;;18.70;7.68;;;17.20;61.30;;;;;;3987034;29;20537;-60
2022/03/18 10:31:10;;;;;;;19.05;7.82;;;17.20;61.40;;;;;;3986533;29;20465;-59
2022/03/18 10:37:04;;;;;;;19.15;7.22;;;17.20;61.70;;;;;;3985947;29;20420;-60
2022/03/18 10:39:23;;;;;;;14.10;7.28;;;17.20;61.90;;;;;;3957769;29;20047;-59
2022/03/18 10:41:49;;;;;;;15.57;8.20;;;17.10;62.30;;;;;;3972618;29;20415;-60
2022/03/18 10:44:11;;;;;;;18.15;7.53;;;17.10;61.80;;;;;;3986084;29;20066;-60
2022/03/18 10:46:42;;;;;;;19.20;7.95;;;17.10;62.00;;;;;;3986413;29;20050;-60
2022/03/18 10:49:05;;;;;;;16.23;7.85;;;17.10;62.90;;;;;;3985864;29;20141;-60
2022/03/18 10:51:27;;;;;;;23.27;8.10;;;17.10;62.60;;;;;;3986033;29;20118;-60
2022/03/18 10:53:56;;;;;;;20.23;7.93;;;17.10;63.10;;;;;;3985579;29;20058;-61
2022/03/18 10:56:18;;;;;;;16.85;8.35;;;17.10;62.40;;;;;;3985478;29;20059;-61
2022/03/18 10:58:41;;;;;;;15.93;7.07;;;17.10;62.60;;;;;;3986151;29;20106;-59
2022/03/18 11:01:04;;;;;;;16.52;8.40;;;17.10;63.10;;;;;;3986333;29;20098;-61
2022/03/18 11:03:28;;;;;;;16.27;7.82;;;17.10;64.20;;;;;;3985762;29;20445;-60
2022/03/18 11:05:51;;;;;;;19.75;7.10;;;17.10;65.10;;;;;;3985586;29;20058;-59
2022/03/18 11:08:17;;;;;;;20.70;7.50;;;17.20;63.90;;;;;;3986025;29;20489;-61
2022/03/18 11:13:24;;;;;;;16.88;6.68;;;17.20;63.40;;;;;;3985912;29;20065;-60
2022/03/18 11:15:46;;;;;;;19.58;8.05;;;17.20;62.50;;;;;;3986067;29;20050;-58
2022/03/18 11:18:11;;;;;;;16.85;7.00;;;17.20;62.50;;;;;;3973825;29;20078;-58
2022/03/18 11:20:42;;;;;;;19.58;7.82;;;17.20;63.00;;;;;;3973874;29;20636;-58
2022/03/18 11:23:04;;;;;;;16.05;7.43;;;17.10;62.90;;;;;;3973551;29;20058;-63
2022/03/18 11:25:28;;;;;;;13.93;7.20;;;17.20;63.30;;;;;;3984949;29;20130;-63
2022/03/18 11:27:52;;;;;;;17.67;7.18;;;17.10;63.00;;;;;;3988319;29;20129;-60
2022/03/18 11:30:22;;;;;;;23.48;8.13;;;17.10;63.20;;;;;;3987806;29;20417;-61
2022/03/18 11:32:44;;;;;;;19.47;7.80;;;17.10;62.80;;;;;;3978591;29;20061;-59
2022/03/18 11:35:07;;;;;;;24.15;10.38;;;17.10;63.20;;;;;;3974633;29;20655;-58
2022/03/18 11:37:30;;;;;;;18.73;9.35;;;17.20;63.30;;;;;;3988745;29;20118;-58
2022/03/18 11:39:53;;;;;;;27.70;11.13;;;17.20;63.10;;;;;;3988764;29;20111;-58
2022/03/18 11:42:19;;;;;;;20.08;10.32;;;17.20;63.40;;;;;;3988997;29;20053;-58
2022/03/18 11:44:49;;;;;;;22.95;9.48;;;17.20;63.50;;;;;;3974422;29;20108;-59
2022/03/18 11:47:33;;;;;;;18.02;8.02;;;17.20;62.50;;;;;;3988530;29;20486;-59
2022/03/18 11:50:49;;;;;;;18.40;8.77;;;17.20;62.30;;;;;;3989548;29;20052;-59
2022/03/18 11:53:34;;;;;;;18.60;9.02;;;17.30;62.40;;;;;;4003846;29;20061;-59
2022/03/18 11:56:09;;;;;;;23.10;9.95;;;17.20;62.60;;;;;;3989657;29;20062;-59
2022/03/18 11:58:33;;;;;;;21.02;8.13;;;17.30;62.50;;;;;;3988276;29;20107;-58
2022/03/18 12:00:55;;;;;;;22.75;9.25;;;17.30;62.20;;;;;;3988419;29;20622;-59
2022/03/18 12:03:21;;;;;;;22.25;7.68;;;17.30;62.40;;;;;;3988270;29;20058;-59
2022/03/18 12:05:53;;;;;;;17.17;7.70;;;17.30;61.90;;;;;;3987505;29;20387;-59
2022/03/18 12:08:16;;;;;;;13.20;6.93;;;17.30;62.80;;;;;;4000163;29;20556;-59
2022/03/18 12:10:39;;;;;;;15.80;6.00;;;17.30;62.90;;;;;;3993585;29;20159;-62
2022/03/18 12:13:02;;;;;;;16.85;6.65;;;17.40;62.20;;;;;;3978249;29;20054;-64
2022/03/18 12:15:25;;;;;;;19.63;6.15;;;17.40;61.60;;;;;;3984350;29;20478;-62
2022/03/18 12:17:49;;;;;;;16.73;6.43;;;17.40;61.90;;;;;;3987909;29;20058;-62
2022/03/18 12:20:13;;;;;;;17.58;6.10;;;17.40;61.60;;;;;;3988004;29;20161;-65
2022/03/18 12:22:39;;;;;;;18.90;5.95;;;17.40;61.90;;;;;;3987336;29;20557;-62
2022/03/18 12:25:03;;;;;;;14.70;4.63;;;17.40;61.70;;;;;;3986764;29;20050;-62
2022/03/18 12:27:30;;;;;;;19.45;5.85;;;17.40;61.60;;;;;;3986860;29;20054;-62
2022/03/18 12:29:58;;;;;;;18.58;6.45;;;17.40;61.30;;;;;;3987450;29;20131;-62
2022/03/18 12:32:25;;;;;;;17.23;5.15;;;17.40;61.30;;;;;;3987001;29;20474;-62
2022/03/18 12:34:49;;;;;;;15.20;4.95;;;17.40;61.00;;;;;;3987551;29;20058;-62
2022/03/18 12:37:17;;;;;;;13.20;4.75;;;17.40;60.30;;;;;;3987430;29;20078;-62
2022/03/18 12:39:39;;;;;;;15.88;4.95;;;17.40;60.40;;;;;;3978566;29;20182;-62
2022/03/18 12:42:12;;;;;;;15.43;4.90;;;17.40;59.90;;;;;;3979992;29;20055;-62
2022/03/18 12:44:34;;;;;;;15.50;4.70;;;17.40;60.60;;;;;;3986435;29;20050;-62
2022/03/18 12:46:57;;;;;;;14.13;4.78;;;17.40;60.90;;;;;;3987615;29;20509;-62
2022/03/18 12:49:19;;;;;;;10.95;4.10;;;17.50;60.90;;;;;;3988078;29;20118;-62
2022/03/18 12:51:51;;;;;;;15.80;5.03;;;17.50;60.30;;;;;;3988331;29;20146;-62
2022/03/18 12:54:13;;;;;;;19.80;5.78;;;17.40;61.00;;;;;;3986795;29;20146;-61